createdAt,value
2022-10-17T00:00:18.583Z,18.35
2022-10-17T00:02:45.184Z,18.39
2022-10-17T00:05:12.163Z,18.35
2022-10-17T00:07:38.730Z,18.35
2022-10-17T00:10:07.804Z,18.37
2022-10-17T00:12:34.966Z,18.36
2022-10-17T00:15:04.814Z,18.35
2022-10-17T00:17:31.559Z,18.32
2022-10-17T00:20:01.682Z,18.34
2022-10-17T00:22:28.441Z,18.32
2022-10-17T00:24:55.055Z,18.31
2022-10-17T00:27:21.723Z,18.30
2022-10-17T00:29:51.927Z,18.29
2022-10-17T00:32:19.626Z,18.28
2022-10-17T00:34:46.562Z,18.28
2022-10-17T00:37:13.164Z,18.27
2022-10-17T00:39:39.732Z,18.27
2022-10-17T00:42:06.526Z,18.24
2022-10-17T00:44:33.000Z,18.22
2022-10-17T00:47:04.086Z,18.20
2022-10-17T00:49:34.422Z,18.19
2022-10-17T00:52:05.964Z,18.18
2022-10-17T00:54:40.840Z,18.16
2022-10-17T00:57:07.503Z,18.14
2022-10-17T00:59:35.937Z,18.13
2022-10-17T01:02:11.548Z,18.15
2022-10-17T01:04:40.362Z,18.14
2022-10-17T01:07:06.904Z,18.13
2022-10-17T01:09:34.263Z,18.14
2022-10-17T01:12:09.867Z,18.14
2022-10-17T01:15:17.010Z,18.13
2022-10-17T01:17:46.548Z,18.04
2022-10-17T01:20:31.460Z,18.04
2022-10-17T01:23:24.930Z,18.02
2022-10-17T01:26:21.993Z,18.00
2022-10-17T01:29:03.824Z,17.98
2022-10-17T01:31:46.910Z,18.00
2022-10-17T01:34:29.793Z,17.99
2022-10-17T01:37:14.885Z,17.98
2022-10-17T01:39:47.909Z,17.97
2022-10-17T01:42:38.442Z,17.98
2022-10-17T01:45:31.541Z,17.99
2022-10-17T01:48:05.095Z,17.99
2022-10-17T01:50:37.279Z,17.97
2022-10-17T01:53:10.674Z,17.92
2022-10-17T01:55:41.223Z,17.89
2022-10-17T01:58:12.449Z,17.93
2022-10-17T02:00:42.839Z,17.97
2022-10-17T02:03:15.640Z,18.00
2022-10-17T02:05:44.301Z,18.00
2022-10-17T02:08:11.789Z,18.00
2022-10-17T02:10:50.493Z,18.01
2022-10-17T02:13:32.327Z,18.02
2022-10-17T02:16:13.308Z,18.07
2022-10-17T02:18:48.872Z,18.05
2022-10-17T02:21:39.840Z,17.99
2022-10-17T02:24:20.629Z,17.95
2022-10-17T02:27:03.731Z,17.98
2022-10-17T02:29:40.297Z,17.97
2022-10-17T02:32:12.189Z,17.97
2022-10-17T02:34:46.881Z,17.96
2022-10-17T02:37:19.288Z,17.97
2022-10-17T02:39:47.555Z,17.94
2022-10-17T02:42:14.970Z,17.93
2022-10-17T02:44:44.795Z,17.92
2022-10-17T02:47:23.129Z,17.87
2022-10-17T02:49:55.942Z,17.87
2022-10-17T02:52:34.056Z,17.84
2022-10-17T02:55:10.805Z,17.74
2022-10-17T02:57:42.281Z,17.74
2022-10-17T03:00:12.258Z,17.74
2022-10-17T03:02:47.304Z,17.78
2022-10-17T03:05:18.722Z,17.78
2022-10-17T03:07:45.711Z,17.75
2022-10-17T03:10:12.584Z,17.75
2022-10-17T03:12:39.200Z,17.74
2022-10-17T03:15:07.417Z,17.72
2022-10-17T03:17:34.359Z,17.68
2022-10-17T03:20:01.040Z,17.65
2022-10-17T03:22:29.526Z,17.67
2022-10-17T03:24:58.001Z,17.69
2022-10-17T03:27:25.123Z,17.69
2022-10-17T03:29:51.675Z,17.69
2022-10-17T03:32:18.345Z,17.65
2022-10-17T03:34:45.191Z,17.61
2022-10-17T03:37:12.034Z,17.60
2022-10-17T03:39:40.322Z,17.57
2022-10-17T03:42:06.884Z,17.55
2022-10-17T03:44:33.424Z,17.52
2022-10-17T03:46:59.979Z,17.50
2022-10-17T03:49:26.569Z,17.41
2022-10-17T03:51:53.305Z,17.40
2022-10-17T03:54:19.879Z,17.42
2022-10-17T03:56:46.895Z,17.44
2022-10-17T03:59:17.078Z,17.43
2022-10-17T04:01:50.827Z,17.42
2022-10-17T04:04:18.460Z,17.41
2022-10-17T04:06:45.056Z,17.32
2022-10-17T04:09:11.779Z,17.27
2022-10-17T04:11:48.118Z,17.20
2022-10-17T04:14:14.792Z,17.22
2022-10-17T04:16:42.194Z,17.20
2022-10-17T04:19:14.103Z,17.27
2022-10-17T04:21:44.500Z,17.31
2022-10-17T04:24:12.064Z,17.32
2022-10-17T04:26:44.581Z,17.41
2022-10-17T04:29:12.015Z,17.45
2022-10-17T04:31:40.981Z,17.42
2022-10-17T04:34:15.572Z,17.40
2022-10-17T04:36:42.315Z,17.42
2022-10-17T04:39:09.090Z,17.43
2022-10-17T04:41:36.324Z,17.38
2022-10-17T04:44:02.924Z,17.32
2022-10-17T04:46:35.133Z,17.29
2022-10-17T04:49:01.855Z,17.25
2022-10-17T04:51:29.123Z,17.19
2022-10-17T04:54:15.932Z,17.07
2022-10-17T04:56:44.296Z,16.99
2022-10-17T04:59:11.159Z,16.99
2022-10-17T05:01:39.514Z,16.97
2022-10-17T05:04:06.638Z,16.94
2022-10-17T05:06:33.645Z,16.91
2022-10-17T05:09:18.656Z,16.87
2022-10-17T05:11:45.358Z,16.86
2022-10-17T05:14:12.934Z,16.83
2022-10-17T05:16:39.554Z,16.81
2022-10-17T05:19:06.497Z,16.80
2022-10-17T05:21:39.444Z,16.76
2022-10-17T05:24:10.940Z,16.67
2022-10-17T05:26:38.981Z,16.61
2022-10-17T05:29:05.734Z,16.61
2022-10-17T05:31:36.512Z,16.62
2022-10-17T05:34:04.520Z,16.64
2022-10-17T05:36:33.303Z,16.65
2022-10-17T05:39:01.335Z,16.67
2022-10-17T05:41:28.631Z,16.70
2022-10-17T05:43:55.358Z,16.75
2022-10-17T05:46:33.975Z,16.76
2022-10-17T05:49:00.552Z,16.77
2022-10-17T05:51:27.671Z,16.81
2022-10-17T05:53:56.123Z,16.87
2022-10-17T05:56:26.146Z,16.82
2022-10-17T05:58:57.386Z,16.77
2022-10-17T06:01:46.655Z,16.79
2022-10-17T06:04:13.588Z,16.74
2022-10-17T06:06:40.822Z,16.82
2022-10-17T06:09:08.175Z,16.92
2022-10-17T06:11:38.237Z,16.88
2022-10-17T06:14:06.047Z,16.91
2022-10-17T06:16:32.740Z,16.95
2022-10-17T06:18:59.412Z,16.94
2022-10-17T06:21:27.553Z,16.92
2022-10-17T06:24:02.859Z,16.88
2022-10-17T06:26:32.405Z,16.86
2022-10-17T06:28:59.244Z,16.79
2022-10-17T06:31:30.635Z,16.82
2022-10-17T06:33:57.678Z,16.91
2022-10-17T06:36:24.399Z,16.97
2022-10-17T06:38:51.134Z,17.03
2022-10-17T06:41:22.888Z,17.04
2022-10-17T06:43:52.498Z,17.04
2022-10-17T06:46:48.528Z,16.93
2022-10-17T06:49:16.987Z,16.92
2022-10-17T06:51:48.891Z,17.03
2022-10-17T06:54:18.489Z,17.07
2022-10-17T06:57:00.608Z,17.14
2022-10-17T06:59:30.294Z,17.20
2022-10-17T07:02:05.893Z,17.28
2022-10-17T07:04:32.792Z,17.22
2022-10-17T07:09:33.464Z,17.41
2022-10-17T07:12:00.207Z,17.51
2022-10-17T07:14:32.094Z,17.59
2022-10-17T07:16:59.608Z,17.68
2022-10-17T07:19:28.821Z,17.72
2022-10-17T07:21:55.504Z,17.80
2022-10-17T07:24:22.220Z,17.88
2022-10-17T07:26:54.301Z,17.93
2022-10-17T07:29:21.083Z,18.00
2022-10-17T07:32:08.604Z,18.07
2022-10-17T07:34:36.538Z,18.10
2022-10-17T07:37:03.996Z,18.22
2022-10-17T07:39:30.665Z,18.31
2022-10-17T07:41:59.221Z,18.38
2022-10-17T07:44:26.118Z,18.42
2022-10-17T07:46:53.845Z,18.44
2022-10-17T07:49:20.372Z,18.47
2022-10-17T07:51:48.563Z,18.54
2022-10-17T07:54:15.199Z,18.60
2022-10-17T07:56:41.715Z,18.69
2022-10-17T07:59:09.465Z,18.80
2022-10-17T08:01:37.091Z,18.88
2022-10-17T08:04:03.797Z,18.92
2022-10-17T08:06:30.410Z,18.90
2022-10-17T08:08:57.931Z,18.82
2022-10-17T08:11:25.348Z,18.92
2022-10-17T08:13:52.143Z,19.00
2022-10-17T08:16:18.950Z,19.06
2022-10-17T08:18:45.556Z,19.22
2022-10-17T08:21:13.337Z,19.37
2022-10-17T08:23:40.816Z,19.45
2022-10-17T08:26:10.511Z,19.45
2022-10-17T08:28:39.283Z,19.71
2022-10-17T08:31:08.796Z,19.97
2022-10-17T08:33:35.488Z,20.17
2022-10-17T08:36:03.450Z,20.36
2022-10-17T08:38:35.058Z,20.50
2022-10-17T08:41:07.136Z,20.59
2022-10-17T08:43:39.753Z,20.64
2022-10-17T08:46:08.918Z,20.75
2022-10-17T08:48:44.078Z,20.80
2022-10-17T08:51:22.736Z,20.88
2022-10-17T08:54:02.291Z,20.95
2022-10-17T08:56:58.371Z,20.86
2022-10-17T08:59:30.061Z,20.82
2022-10-17T09:02:13.391Z,21.07
2022-10-17T09:04:58.989Z,21.26
2022-10-17T09:07:58.766Z,21.46
2022-10-17T09:10:44.717Z,21.57
2022-10-17T09:13:32.791Z,21.66
2022-10-17T09:16:18.753Z,21.77
2022-10-17T09:18:57.065Z,21.85
2022-10-17T09:21:26.592Z,21.99
2022-10-17T09:24:09.075Z,22.11
2022-10-17T09:26:39.456Z,22.19
2022-10-17T09:29:16.857Z,22.27
2022-10-17T09:31:51.818Z,22.21
2022-10-17T09:34:18.514Z,22.09
2022-10-17T09:36:45.089Z,22.06
2022-10-17T09:39:22.876Z,22.16
2022-10-17T09:41:51.919Z,22.22
2022-10-17T09:44:21.673Z,22.24
2022-10-17T09:46:56.720Z,22.30
2022-10-17T09:49:33.591Z,22.22
2022-10-17T09:52:05.862Z,22.01
2022-10-17T09:54:43.708Z,22.04
2022-10-17T09:57:12.835Z,22.24
2022-10-17T09:59:42.724Z,22.69
2022-10-17T10:02:20.051Z,24.89
2022-10-17T10:05:04.200Z,27.20
2022-10-17T10:07:35.344Z,29.99
2022-10-17T10:10:04.558Z,32.27
2022-10-17T10:12:34.027Z,32.89
2022-10-17T10:15:00.923Z,33.76
2022-10-17T10:17:41.579Z,32.82
2022-10-17T10:20:31.618Z,30.31
2022-10-17T10:23:22.136Z,28.24
2022-10-17T10:26:23.329Z,26.92
2022-10-17T10:28:59.875Z,26.00
2022-10-17T10:31:33.420Z,25.59
2022-10-17T10:34:03.209Z,25.26
2022-10-17T10:36:58.289Z,25.18
2022-10-17T10:39:49.721Z,24.86
2022-10-17T10:42:37.379Z,24.80
2022-10-17T10:45:43.264Z,24.89
2022-10-17T10:48:23.291Z,25.03
2022-10-17T10:50:49.817Z,25.15
2022-10-17T10:53:35.553Z,25.28
2022-10-17T10:56:21.630Z,25.81
2022-10-17T10:58:57.636Z,27.73
2022-10-17T11:01:35.527Z,30.46
2022-10-17T11:04:23.514Z,33.64
2022-10-17T11:06:55.188Z,36.17
2022-10-17T11:09:50.993Z,37.46
2022-10-17T11:12:20.779Z,37.96
2022-10-17T11:15:05.891Z,37.94
2022-10-17T11:17:35.682Z,39.20
2022-10-17T11:20:25.886Z,40.23
2022-10-17T11:22:58.728Z,39.87
2022-10-17T11:25:28.178Z,40.30
2022-10-17T11:27:54.878Z,40.69
2022-10-17T11:30:24.193Z,41.36
2022-10-17T11:32:54.220Z,42.04
2022-10-17T11:35:31.743Z,42.37
2022-10-17T11:38:06.659Z,41.59
2022-10-17T11:40:40.203Z,42.20
2022-10-17T11:43:28.684Z,42.98
2022-10-17T11:46:02.543Z,42.85
2022-10-17T11:48:37.615Z,42.68
2022-10-17T11:54:16.168Z,41.68
2022-10-17T11:56:55.809Z,41.54
2022-10-17T11:59:50.362Z,42.03
2022-10-17T12:02:47.884Z,42.44
2022-10-17T12:05:37.492Z,42.23
2022-10-17T12:08:18.337Z,41.41
2022-10-17T12:11:01.159Z,40.86
2022-10-17T12:13:28.237Z,40.31
2022-10-17T12:16:17.524Z,40.26
2022-10-17T12:18:44.910Z,39.78
2022-10-17T12:21:11.697Z,39.56
2022-10-17T12:23:40.053Z,39.23
2022-10-17T12:26:10.570Z,38.73
2022-10-17T12:28:37.178Z,37.11
2022-10-17T12:31:15.834Z,34.65
2022-10-17T12:33:59.345Z,32.66
2022-10-17T12:36:28.895Z,31.36
2022-10-17T12:39:01.551Z,30.51
2022-10-17T12:41:51.585Z,29.84
2022-10-17T12:44:21.377Z,29.32
2022-10-17T12:46:48.294Z,28.66
2022-10-17T12:49:37.095Z,28.27
2022-10-17T12:52:15.920Z,28.11
2022-10-17T12:54:47.986Z,27.92
2022-10-17T12:57:47.753Z,27.60
2022-10-17T13:00:17.174Z,27.33
2022-10-17T13:02:44.650Z,27.11
2022-10-17T13:05:32.875Z,27.07
2022-10-17T13:08:02.373Z,27.10
2022-10-17T13:10:33.506Z,27.01
2022-10-17T13:13:08.976Z,27.03
2022-10-17T13:15:37.135Z,27.05
2022-10-17T13:18:04.601Z,27.01
2022-10-17T13:20:32.185Z,26.99
2022-10-17T13:22:59.508Z,26.96
2022-10-17T13:25:27.240Z,26.98
2022-10-17T13:28:06.179Z,26.90
2022-10-17T13:30:35.330Z,26.87
2022-10-17T13:33:02.983Z,26.79
2022-10-17T13:38:28.787Z,26.76
2022-10-17T13:41:05.824Z,26.77
2022-10-17T13:43:32.989Z,26.68
2022-10-17T13:46:25.307Z,26.60
2022-10-17T13:48:52.531Z,26.60
2022-10-17T13:51:19.607Z,26.64
2022-10-17T13:53:46.203Z,26.69
2022-10-17T13:56:29.499Z,26.72
2022-10-17T13:59:00.231Z,26.66
2022-10-17T14:01:29.044Z,26.52
2022-10-17T14:04:07.819Z,26.35
2022-10-17T14:06:45.108Z,26.27
2022-10-17T14:09:26.765Z,26.26
2022-10-17T14:11:58.559Z,26.25
2022-10-17T14:14:26.121Z,26.21
2022-10-17T14:16:58.321Z,26.09
2022-10-17T14:19:28.025Z,26.01
2022-10-17T14:21:57.330Z,26.00
2022-10-17T14:24:23.984Z,25.88
2022-10-17T14:26:59.495Z,25.76
2022-10-17T14:29:50.411Z,25.57
2022-10-17T14:32:18.071Z,25.42
2022-10-17T14:34:46.564Z,25.34
2022-10-17T14:37:47.679Z,25.25
2022-10-17T14:40:17.596Z,25.15
2022-10-17T14:42:45.493Z,25.13
2022-10-17T14:45:23.806Z,25.03
2022-10-17T14:47:52.806Z,25.01
2022-10-17T14:50:32.044Z,24.98
2022-10-17T14:53:10.735Z,24.94
2022-10-17T14:55:40.120Z,24.82
2022-10-17T14:58:33.545Z,24.78
2022-10-17T15:01:02.090Z,24.74
2022-10-17T15:03:28.790Z,24.83
2022-10-17T15:05:55.806Z,24.90
2022-10-17T15:08:24.349Z,25.04
2022-10-17T15:10:51.873Z,25.11
2022-10-17T15:13:40.067Z,25.12
2022-10-17T15:16:26.480Z,25.12
2022-10-17T15:18:54.141Z,25.12
2022-10-17T15:21:39.197Z,25.16
2022-10-17T15:24:08.696Z,25.11
2022-10-17T15:26:35.820Z,25.11
2022-10-17T15:29:02.635Z,25.15
2022-10-17T15:31:31.423Z,25.13
2022-10-17T15:33:58.074Z,25.19
2022-10-17T15:36:36.111Z,25.23
2022-10-17T15:39:03.158Z,25.28
2022-10-17T15:41:31.747Z,25.34
2022-10-17T15:43:59.426Z,25.29
2022-10-17T15:46:32.714Z,25.22
2022-10-17T15:49:04.072Z,25.12
2022-10-17T15:51:30.697Z,25.06
2022-10-17T15:53:57.351Z,24.99
2022-10-17T15:56:28.544Z,24.94
2022-10-17T15:58:55.511Z,24.86
2022-10-17T16:01:25.002Z,24.76
2022-10-17T16:03:51.739Z,24.60
2022-10-17T16:06:19.517Z,24.44
2022-10-17T16:08:46.972Z,24.41
2022-10-17T16:11:25.709Z,24.42
2022-10-17T16:13:54.114Z,24.30
2022-10-17T16:16:22.483Z,24.23
2022-10-17T16:18:49.269Z,24.21
2022-10-17T16:21:17.641Z,24.22
2022-10-17T16:23:45.150Z,24.23
2022-10-17T16:26:15.880Z,24.23
2022-10-17T16:28:46.076Z,24.21
2022-10-17T16:31:22.915Z,24.18
2022-10-17T16:33:51.718Z,24.14
2022-10-17T16:36:19.231Z,24.10
2022-10-17T16:38:46.902Z,24.03
2022-10-17T16:41:29.591Z,23.91
2022-10-17T16:43:58.877Z,23.79
2022-10-17T16:46:26.915Z,23.68
2022-10-17T16:48:54.409Z,23.58
2022-10-17T16:51:21.415Z,23.52
2022-10-17T16:53:50.623Z,23.48
2022-10-17T16:56:19.850Z,23.44
2022-10-17T16:58:47.344Z,23.39
2022-10-17T17:01:17.184Z,23.36
2022-10-17T17:03:45.267Z,23.29
2022-10-17T17:06:17.302Z,23.26
2022-10-17T17:08:44.517Z,23.20
2022-10-17T17:11:13.760Z,23.17
2022-10-17T17:13:41.353Z,23.13
2022-10-17T17:16:22.928Z,23.11
2022-10-17T17:18:55.287Z,23.09
2022-10-17T17:21:22.279Z,23.13
2022-10-17T17:23:49.009Z,23.21
2022-10-17T17:26:18.720Z,23.26
2022-10-17T17:28:46.124Z,23.29
2022-10-17T17:31:16.059Z,23.32
2022-10-17T17:33:43.307Z,23.29
2022-10-17T17:36:13.917Z,23.27
2022-10-17T17:38:41.322Z,23.25
2022-10-17T17:41:08.289Z,23.24
2022-10-17T17:43:35.823Z,23.23
2022-10-17T17:46:02.696Z,23.19
2022-10-17T17:48:29.474Z,23.15
2022-10-17T17:50:56.155Z,23.06
2022-10-17T17:53:23.154Z,23.00
2022-10-17T17:56:04.898Z,23.00
2022-10-17T17:58:32.086Z,23.04
2022-10-17T18:00:59.258Z,23.09
2022-10-17T18:03:26.646Z,23.12
2022-10-17T18:05:53.810Z,23.12
2022-10-17T18:08:20.702Z,23.12
2022-10-17T18:10:49.391Z,23.07
2022-10-17T18:13:16.743Z,23.03
2022-10-17T18:15:44.480Z,23.03
2022-10-17T18:18:11.150Z,23.01
2022-10-17T18:20:42.320Z,22.98
2022-10-17T18:23:10.299Z,22.89
2022-10-17T18:25:37.295Z,22.87
2022-10-17T18:28:04.428Z,22.86
2022-10-17T18:30:34.517Z,22.86
2022-10-17T18:33:01.248Z,22.87
2022-10-17T18:35:27.982Z,22.89
2022-10-17T18:37:56.899Z,22.90
2022-10-17T18:40:23.638Z,22.85
2022-10-17T18:42:50.282Z,22.75
2022-10-17T18:45:17.425Z,22.71
2022-10-17T18:47:47.141Z,22.73
2022-10-17T18:50:14.659Z,22.76
2022-10-17T18:52:41.421Z,22.77
2022-10-17T18:55:08.490Z,22.78
2022-10-17T18:57:35.463Z,22.78
2022-10-17T19:00:02.168Z,22.77
2022-10-17T19:02:28.860Z,22.72
2022-10-17T19:04:55.442Z,22.66
2022-10-17T19:07:22.166Z,22.58
2022-10-17T19:09:49.260Z,22.48
2022-10-17T19:12:16.092Z,22.44
2022-10-17T19:14:42.763Z,22.33
2022-10-17T19:17:09.493Z,22.27
2022-10-17T19:19:36.281Z,22.24
2022-10-17T19:22:03.599Z,22.19
2022-10-17T19:24:30.296Z,22.13
2022-10-17T19:26:59.356Z,22.08
2022-10-17T19:29:28.294Z,21.99
2022-10-17T19:34:22.567Z,21.77
2022-10-17T19:36:49.870Z,21.67
2022-10-17T19:39:18.975Z,21.60
2022-10-17T19:41:47.910Z,21.53
2022-10-17T19:44:15.809Z,21.55
2022-10-17T19:46:45.676Z,21.58
2022-10-17T19:49:13.329Z,21.60
2022-10-17T19:51:40.048Z,21.64
2022-10-17T19:54:06.719Z,21.63
2022-10-17T19:56:37.691Z,21.57
2022-10-17T19:59:08.001Z,21.54
2022-10-17T20:01:38.913Z,21.53
2022-10-17T20:04:06.870Z,21.54
2022-10-17T20:06:34.276Z,21.54
2022-10-17T20:09:01.069Z,21.54
2022-10-17T20:11:28.913Z,21.55
2022-10-17T20:13:56.349Z,21.57
2022-10-17T20:16:25.104Z,21.55
2022-10-17T20:18:54.736Z,21.55
2022-10-17T20:21:23.467Z,21.52
2022-10-17T20:23:51.601Z,21.47
2022-10-17T20:29:15.232Z,21.50
2022-10-17T20:31:43.934Z,21.51
2022-10-17T20:34:41.095Z,21.54
2022-10-17T20:37:27.946Z,21.53
2022-10-17T20:40:16.480Z,21.55
2022-10-17T20:42:41.656Z,21.57
2022-10-17T20:45:08.650Z,21.57
2022-10-17T20:47:45.892Z,21.51
2022-10-17T20:50:13.979Z,21.43
2022-10-17T20:52:40.687Z,21.41
2022-10-17T20:55:07.640Z,21.42
2022-10-17T20:57:34.171Z,21.41
2022-10-17T21:00:00.762Z,21.39
2022-10-17T21:02:27.738Z,21.41
2022-10-17T21:04:54.359Z,21.41
2022-10-17T21:07:22.204Z,21.36
2022-10-17T21:09:48.793Z,21.25
2022-10-17T21:12:25.830Z,21.23
2022-10-17T21:14:58.914Z,21.22
2022-10-17T21:17:25.762Z,21.23
2022-10-17T21:19:52.367Z,21.26
2022-10-17T21:22:18.942Z,21.28
2022-10-17T21:24:45.524Z,21.31
2022-10-17T21:27:15.676Z,21.28
2022-10-17T21:29:42.325Z,21.22
2022-10-17T21:32:19.495Z,21.17
2022-10-17T21:34:57.090Z,21.14
2022-10-17T21:37:23.691Z,21.18
2022-10-17T21:39:50.264Z,21.26
2022-10-17T21:42:16.868Z,21.32
2022-10-17T21:44:43.784Z,21.34
2022-10-17T21:47:10.697Z,21.36
2022-10-17T21:49:38.349Z,21.33
2022-10-17T21:52:07.158Z,21.29
2022-10-17T21:54:33.860Z,21.28
2022-10-17T21:57:00.786Z,21.28
2022-10-17T21:59:27.427Z,21.28
2022-10-17T22:01:54.087Z,21.29
2022-10-17T22:04:20.721Z,21.27
2022-10-17T22:06:51.094Z,21.27
2022-10-17T22:09:24.115Z,21.24
2022-10-17T22:11:53.933Z,21.22
2022-10-17T22:14:22.666Z,21.20
2022-10-17T22:16:49.988Z,21.18
2022-10-17T22:19:19.932Z,21.16
2022-10-17T22:21:46.879Z,21.11
2022-10-17T22:24:15.422Z,21.06
2022-10-17T22:26:42.973Z,21.00
2022-10-17T22:29:10.142Z,20.99
2022-10-17T22:31:37.505Z,20.93
2022-10-17T22:34:05.510Z,20.87
2022-10-17T22:36:32.435Z,20.81
2022-10-17T22:38:59.009Z,20.77
2022-10-17T22:41:25.551Z,20.73
2022-10-17T22:43:52.212Z,20.71
2022-10-17T22:46:18.880Z,20.70
2022-10-17T22:48:45.850Z,20.71
2022-10-17T22:51:13.248Z,20.74
2022-10-17T22:53:40.023Z,20.74
2022-10-17T22:56:12.661Z,20.74
2022-10-17T22:58:39.930Z,20.69
2022-10-17T23:01:08.284Z,20.68
2022-10-17T23:03:35.801Z,20.65
2022-10-17T23:06:03.762Z,20.65
2022-10-17T23:08:30.578Z,20.65
2022-10-17T23:10:57.371Z,20.64
2022-10-17T23:13:23.938Z,20.65
2022-10-17T23:15:54.980Z,20.66
2022-10-17T23:18:22.695Z,20.63
2022-10-17T23:20:49.963Z,20.64
2022-10-17T23:23:17.188Z,20.63
2022-10-17T23:25:43.870Z,20.59
2022-10-17T23:28:11.107Z,20.56
2022-10-17T23:30:39.043Z,20.57
2022-10-17T23:33:06.215Z,20.57
2022-10-17T23:35:33.071Z,20.58
2022-10-17T23:38:00.207Z,20.63
2022-10-17T23:40:26.976Z,20.65
2022-10-17T23:42:53.736Z,20.65
2022-10-17T23:45:20.467Z,20.65
2022-10-17T23:47:47.168Z,20.52
2022-10-17T23:50:13.846Z,20.46
2022-10-17T23:52:40.432Z,20.49
2022-10-17T23:55:07.928Z,20.51
2022-10-17T23:57:34.713Z,20.46
